Time;durP1;ratioP1;P1;durP2;ratioP2;P2;SDS_P1;SDS_P2;PMS_P1;PMS_P2;Temp;Humidity;BMP_temperature;BMP_pressure;BME280_temperature;BME280_humidity;BME280_pressure;Samples;Min_cycle;Max_cycle;Signal;HPM_P1;HPM_P2
2022/04/28 00:00:29;;;;;;;4.50;4.10;;;;;;;;;;5068951;28;20214;-82
2022/04/28 00:02:59;;;;;;;4.40;4.10;;;;;;;;;;5067888;28;20192;-82
2022/04/28 00:05:25;;;;;;;5.13;4.73;;;;;;;;;;5087264;28;20252;-81
2022/04/28 00:07:57;;;;;;;5.20;4.70;;;;;;;;;;5071078;28;20225;-79
2022/04/28 00:10:24;;;;;;;4.60;4.13;;;;;;;;;;5085030;28;20168;-79
2022/04/28 00:12:51;;;;;;;5.77;4.13;;;;;;;;;;5065929;28;20179;-81
2022/04/28 00:15:17;;;;;;;4.83;4.40;;;;;;;;;;5068799;28;20184;-81
2022/04/28 00:17:43;;;;;;;6.77;5.30;;;;;;;;;;5066504;28;20172;-80
2022/04/28 00:20:09;;;;;;;7.50;5.53;;;;;;;;;;5068141;28;20215;-81
2022/04/28 00:22:35;;;;;;;5.63;4.17;;;;;;;;;;5068606;28;20259;-80
2022/04/28 00:25:05;;;;;;;4.90;4.40;;;;;;;;;;5066248;28;20237;-81
2022/04/28 00:27:34;;;;;;;6.13;5.10;;;;;;;;;;5083216;28;20199;-80
2022/04/28 00:30:04;;;;;;;5.37;4.77;;;;;;;;;;5051265;28;20624;-81
2022/04/28 00:32:31;;;;;;;4.80;4.40;;;;;;;;;;5045636;28;20189;-81
2022/04/28 00:34:57;;;;;;;4.63;4.23;;;;;;;;;;5042610;28;20700;-81
2022/04/28 00:37:24;;;;;;;5.07;4.47;;;;;;;;;;5044047;28;20188;-81
2022/04/28 00:39:50;;;;;;;5.13;4.63;;;;;;;;;;5045339;28;20177;-81
2022/04/28 00:42:18;;;;;;;4.87;4.40;;;;;;;;;;5044470;28;20214;-81
2022/04/28 00:44:44;;;;;;;5.30;4.70;;;;;;;;;;5035942;28;20173;-80
2022/04/28 00:47:11;;;;;;;5.30;4.80;;;;;;;;;;5045132;28;20541;-80
2022/04/28 00:52:23;;;;;;;5.70;5.10;;;;;;;;;;5046706;28;20235;-82
2022/04/28 00:54:56;;;;;;;5.97;5.37;;;;;;;;;;5026238;28;20205;-80
2022/04/28 00:57:23;;;;;;;5.00;4.50;;;;;;;;;;5043555;28;20188;-80
2022/04/28 01:00:04;;;;;;;5.80;5.30;;;;;;;;;;5045720;28;20215;-81
2022/04/28 01:02:30;;;;;;;5.20;4.80;;;;;;;;;;5020634;28;20596;-80
2022/04/28 01:05:02;;;;;;;7.17;4.47;;;;;;;;;;5028571;28;20327;-80
2022/04/28 01:07:29;;;;;;;4.90;4.40;;;;;;;;;;5027818;28;20228;-80
2022/04/28 01:09:55;;;;;;;5.30;4.80;;;;;;;;;;5046524;28;20268;-80
2022/04/28 01:12:24;;;;;;;5.10;4.50;;;;;;;;;;5029053;28;20188;-80
2022/04/28 01:14:50;;;;;;;5.17;4.77;;;;;;;;;;5029967;28;20222;-80
2022/04/28 01:17:17;;;;;;;5.37;4.60;;;;;;;;;;5027437;28;20269;-81
2022/04/28 01:19:43;;;;;;;5.63;4.90;;;;;;;;;;5045063;28;20657;-80
2022/04/28 01:22:09;;;;;;;6.20;4.87;;;;;;;;;;5028920;28;20299;-80
2022/04/28 01:24:36;;;;;;;5.27;4.87;;;;;;;;;;5045871;28;20264;-81
2022/04/28 01:27:05;;;;;;;5.40;5.00;;;;;;;;;;5029872;28;20635;-80
2022/04/28 01:29:34;;;;;;;5.53;5.00;;;;;;;;;;5032265;28;20251;-79
2022/04/28 01:32:01;;;;;;;7.77;5.43;;;;;;;;;;5047032;28;20183;-81
2022/04/28 01:34:27;;;;;;;5.37;4.70;;;;;;;;;;5047290;28;20208;-82
2022/04/28 01:36:53;;;;;;;5.80;5.23;;;;;;;;;;5066692;28;20180;-80
2022/04/28 01:39:20;;;;;;;5.10;4.60;;;;;;;;;;5048734;28;20191;-81
2022/04/28 01:41:54;;;;;;;5.20;4.73;;;;;;;;;;5051141;28;20169;-80
2022/04/28 01:44:22;;;;;;;5.73;5.10;;;;;;;;;;5051696;28;20184;-81
2022/04/28 01:46:51;;;;;;;6.03;4.70;;;;;;;;;;5051364;28;20208;-82
2022/04/28 01:49:18;;;;;;;5.10;4.70;;;;;;;;;;5070187;28;20190;-81
2022/04/28 01:57:13;;;;;;;5.93;5.30;;;;;;;;;;5069731;28;20290;-78
2022/04/28 01:59:39;;;;;;;5.57;5.03;;;;;;;;;;5049303;28;20196;-79
2022/04/28 02:02:05;;;;;;;6.20;5.47;;;;;;;;;;5054436;28;20172;-80
2022/04/28 02:04:35;;;;;;;6.87;5.33;;;;;;;;;;5051587;28;20239;-80
2022/04/28 02:07:01;;;;;;;6.90;4.93;;;;;;;;;;5071022;28;20552;-78
2022/04/28 02:09:28;;;;;;;5.80;5.30;;;;;;;;;;5053392;28;20780;-79
2022/04/28 02:11:54;;;;;;;6.90;5.53;;;;;;;;;;5051587;28;20188;-80
2022/04/28 02:14:20;;;;;;;5.33;4.93;;;;;;;;;;5051778;28;20200;-79
2022/04/28 02:16:46;;;;;;;6.43;5.30;;;;;;;;;;5052057;28;20181;-81
2022/04/28 02:19:12;;;;;;;5.93;5.43;;;;;;;;;;5051560;28;20396;-79
2022/04/28 02:21:40;;;;;;;6.83;6.23;;;;;;;;;;5050843;28;20228;-79
2022/04/28 02:24:07;;;;;;;7.70;6.07;;;;;;;;;;5051630;28;20185;-79
2022/04/28 02:26:33;;;;;;;6.40;5.80;;;;;;;;;;5050349;28;20307;-79
2022/04/28 02:29:02;;;;;;;6.27;5.77;;;;;;;;;;5050016;28;20644;-79
2022/04/28 02:31:28;;;;;;;6.07;5.57;;;;;;;;;;5048978;28;20188;-80
2022/04/28 02:34:08;;;;;;;6.43;5.53;;;;;;;;;;5051641;28;20204;-80
2022/04/28 02:36:34;;;;;;;6.30;5.70;;;;;;;;;;5050076;28;20176;-80
2022/04/28 02:39:00;;;;;;;6.57;5.97;;;;;;;;;;5050684;28;20321;-79
2022/04/28 02:41:26;;;;;;;6.27;5.67;;;;;;;;;;5051152;28;20297;-79
2022/04/28 02:43:52;;;;;;;6.40;5.77;;;;;;;;;;5051862;28;20671;-80
2022/04/28 02:46:18;;;;;;;6.30;5.70;;;;;;;;;;5052639;28;20543;-79
2022/04/28 02:48:45;;;;;;;8.37;6.13;;;;;;;;;;5049928;28;20180;-81
2022/04/28 02:51:11;;;;;;;9.13;5.70;;;;;;;;;;5070126;28;20217;-79
2022/04/28 02:53:37;;;;;;;7.80;6.77;;;;;;;;;;5062008;28;20537;-81
2022/04/28 02:56:03;;;;;;;7.93;5.63;;;;;;;;;;5049930;28;20200;-79
2022/04/28 02:58:29;;;;;;;7.03;6.33;;;;;;;;;;5067624;28;20649;-78
2022/04/28 03:00:56;;;;;;;8.00;7.30;;;;;;;;;;5051727;28;20275;-80
2022/04/28 03:03:22;;;;;;;6.87;6.23;;;;;;;;;;5067716;28;20187;-79
2022/04/28 03:11:17;;;;;;;9.77;6.17;;;;;;;;;;5070346;28;20277;-79
2022/04/28 03:13:43;;;;;;;7.40;6.07;;;;;;;;;;5069605;28;20196;-79
2022/04/28 03:16:09;;;;;;;9.93;9.13;;;;;;;;;;5066837;28;20181;-80
2022/04/28 03:18:35;;;;;;;8.03;6.07;;;;;;;;;;5066012;28;20193;-79
2022/04/28 03:21:02;;;;;;;7.10;6.40;;;;;;;;;;5050199;28;20173;-78
2022/04/28 03:23:28;;;;;;;8.73;6.70;;;;;;;;;;5066167;28;20298;-78
2022/04/28 03:25:54;;;;;;;6.80;6.20;;;;;;;;;;5068646;28;20204;-80
2022/04/28 03:28:21;;;;;;;7.93;7.07;;;;;;;;;;5067211;28;20611;-79
2022/04/28 03:30:47;;;;;;;6.97;5.90;;;;;;;;;;5054056;28;20224;-81
2022/04/28 03:33:13;;;;;;;11.67;10.63;;;;;;;;;;5048410;28;20201;-78
2022/04/28 03:35:40;;;;;;;7.77;6.43;;;;;;;;;;5047435;28;20196;-79
2022/04/28 03:38:09;;;;;;;18.60;6.47;;;;;;;;;;5046985;28;20169;-78
2022/04/28 03:40:36;;;;;;;6.80;6.13;;;;;;;;;;5048691;28;20635;-78
2022/04/28 03:43:03;;;;;;;7.47;6.77;;;;;;;;;;5048947;28;20216;-78
2022/04/28 03:45:29;;;;;;;6.53;5.93;;;;;;;;;;5046166;28;20595;-79
2022/04/28 03:47:56;;;;;;;8.03;6.93;;;;;;;;;;5046198;28;20666;-81
2022/04/28 03:50:22;;;;;;;10.93;10.10;;;;;;;;;;5061937;28;20628;-79
2022/04/28 03:52:48;;;;;;;7.40;6.70;;;;;;;;;;5046366;28;20186;-78
2022/04/28 03:55:14;;;;;;;7.93;6.80;;;;;;;;;;5050483;28;20185;-79
2022/04/28 03:57:41;;;;;;;7.13;6.40;;;;;;;;;;5047551;28;20191;-78
2022/04/28 04:00:07;;;;;;;7.73;7.03;;;;;;;;;;5045499;28;20288;-79
2022/04/28 04:02:33;;;;;;;7.60;6.50;;;;;;;;;;5048271;28;20242;-79
2022/04/28 04:04:59;;;;;;;7.47;6.37;;;;;;;;;;5062259;28;20403;-79
2022/04/28 04:07:32;;;;;;;7.57;6.67;;;;;;;;;;5049387;28;20184;-79
2022/04/28 04:09:58;;;;;;;6.93;6.07;;;;;;;;;;5045191;28;20238;-80
2022/04/28 04:12:25;;;;;;;7.40;6.63;;;;;;;;;;5031075;28;20185;-79
2022/04/28 04:14:52;;;;;;;7.13;6.53;;;;;;;;;;5047930;28;20285;-79
2022/04/28 04:17:18;;;;;;;7.07;6.33;;;;;;;;;;5048084;28;20177;-79
2022/04/28 04:19:44;;;;;;;7.23;6.50;;;;;;;;;;5032654;28;20235;-79
2022/04/28 04:22:10;;;;;;;8.40;5.70;;;;;;;;;;5032457;28;20223;-80
2022/04/28 04:24:36;;;;;;;7.77;6.87;;;;;;;;;;5029999;28;20181;-79
2022/04/28 04:27:03;;;;;;;7.37;6.47;;;;;;;;;;5030176;28;20201;-80
2022/04/28 04:29:29;;;;;;;10.10;9.00;;;;;;;;;;5048083;28;20278;-79
2022/04/28 04:34:40;;;;;;;8.20;6.60;;;;;;;;;;5040406;28;20731;-79
2022/04/28 04:37:06;;;;;;;6.47;5.87;;;;;;;;;;5026145;28;20181;-79
2022/04/28 04:39:32;;;;;;;7.30;6.67;;;;;;;;;;5030858;28;20477;-79
2022/04/28 04:41:59;;;;;;;7.57;6.83;;;;;;;;;;5045113;28;20192;-80
2022/04/28 04:44:25;;;;;;;8.23;7.07;;;;;;;;;;5031100;28;20697;-80
2022/04/28 04:46:51;;;;;;;7.63;6.23;;;;;;;;;;5032023;28;20271;-81
2022/04/28 04:49:17;;;;;;;7.70;6.47;;;;;;;;;;5030118;28;20322;-79
2022/04/28 04:51:44;;;;;;;10.13;7.17;;;;;;;;;;5032482;28;20181;-79
2022/04/28 04:54:10;;;;;;;7.40;6.70;;;;;;;;;;5049076;28;20658;-80
2022/04/28 04:56:36;;;;;;;10.33;6.77;;;;;;;;;;5043479;28;20535;-83
2022/04/28 04:59:03;;;;;;;7.87;5.87;;;;;;;;;;5045627;28;20632;-80
2022/04/28 05:01:29;;;;;;;9.57;8.30;;;;;;;;;;5047365;28;20258;-80
2022/04/28 05:03:55;;;;;;;7.27;6.20;;;;;;;;;;5031512;28;20211;-79
2022/04/28 05:06:21;;;;;;;8.23;6.40;;;;;;;;;;5029220;28;20565;-80
2022/04/28 05:08:47;;;;;;;9.17;7.60;;;;;;;;;;5048100;28;20174;-79
2022/04/28 05:11:13;;;;;;;8.53;6.97;;;;;;;;;;5047713;28;20185;-80
2022/04/28 05:13:39;;;;;;;7.33;6.63;;;;;;;;;;5029655;28;20274;-79
2022/04/28 05:16:06;;;;;;;10.30;6.87;;;;;;;;;;5029779;28;20200;-80
2022/04/28 05:18:32;;;;;;;8.47;7.63;;;;;;;;;;5034489;28;20169;-79
2022/04/28 05:20:58;;;;;;;7.63;6.83;;;;;;;;;;5035277;28;20196;-80
2022/04/28 05:23:27;;;;;;;9.53;6.57;;;;;;;;;;5037139;28;20197;-79
2022/04/28 05:25:53;;;;;;;8.93;7.10;;;;;;;;;;5033885;28;20737;-80
2022/04/28 05:28:19;;;;;;;9.80;7.43;;;;;;;;;;5050073;28;20220;-79
2022/04/28 05:30:46;;;;;;;8.67;7.10;;;;;;;;;;5033605;28;20213;-80
2022/04/28 05:33:12;;;;;;;8.13;7.10;;;;;;;;;;5050118;28;20468;-79
2022/04/28 05:35:40;;;;;;;8.13;6.70;;;;;;;;;;5033896;28;20177;-80
2022/04/28 05:38:08;;;;;;;8.03;7.33;;;;;;;;;;5047186;28;20217;-81
2022/04/28 05:40:34;;;;;;;6.80;6.20;;;;;;;;;;5035552;28;20173;-79
2022/04/28 05:45:46;;;;;;;10.00;7.43;;;;;;;;;;5053538;28;20192;-80
2022/04/28 05:48:16;;;;;;;9.50;7.43;;;;;;;;;;5051754;28;20181;-80
2022/04/28 05:50:42;;;;;;;8.07;7.27;;;;;;;;;;5035649;28;20243;-81
2022/04/28 05:53:09;;;;;;;8.03;7.23;;;;;;;;;;5055795;28;20177;-80
2022/04/28 05:55:35;;;;;;;8.40;7.20;;;;;;;;;;5035172;28;20196;-80
2022/04/28 05:58:01;;;;;;;9.20;7.57;;;;;;;;;;5034888;28;20423;-80
2022/04/28 06:00:28;;;;;;;9.10;7.33;;;;;;;;;;5035517;28;20177;-81
2022/04/28 06:02:54;;;;;;;9.40;7.57;;;;;;;;;;5031753;28;20624;-82
2022/04/28 06:05:20;;;;;;;10.17;7.33;;;;;;;;;;5034367;28;20276;-79
2022/04/28 06:07:46;;;;;;;9.37;7.93;;;;;;;;;;5034755;28;20235;-80
2022/04/28 06:10:13;;;;;;;8.50;7.23;;;;;;;;;;5033391;28;20181;-81
2022/04/28 06:12:39;;;;;;;11.67;8.13;;;;;;;;;;5033919;28;20178;-79
2022/04/28 06:15:06;;;;;;;12.17;8.03;;;;;;;;;;5032423;28;20694;-80
2022/04/28 06:17:32;;;;;;;9.47;8.00;;;;;;;;;;5050606;28;20204;-83
2022/04/28 06:19:58;;;;;;;8.57;7.77;;;;;;;;;;5035114;28;20177;-80
2022/04/28 06:22:24;;;;;;;9.23;8.10;;;;;;;;;;5033446;28;20176;-80
2022/04/28 06:24:51;;;;;;;8.43;6.97;;;;;;;;;;5049474;28;20268;-79
2022/04/28 06:27:18;;;;;;;10.63;8.07;;;;;;;;;;5057009;28;20208;-81
2022/04/28 06:29:44;;;;;;;10.50;8.07;;;;;;;;;;5041040;28;20208;-79
2022/04/28 06:32:10;;;;;;;8.80;7.90;;;;;;;;;;5055703;28;20180;-79
2022/04/28 06:34:36;;;;;;;10.93;8.20;;;;;;;;;;5057839;28;20231;-79
2022/04/28 06:37:04;;;;;;;10.03;8.03;;;;;;;;;;5062341;28;20437;-80
2022/04/28 06:39:30;;;;;;;10.87;8.73;;;;;;;;;;5055146;28;20246;-79
2022/04/28 06:41:56;;;;;;;9.20;7.87;;;;;;;;;;5054763;28;20188;-80
2022/04/28 06:44:22;;;;;;;8.60;7.80;;;;;;;;;;5055163;28;20184;-80
2022/04/28 06:46:48;;;;;;;8.60;7.37;;;;;;;;;;5056266;28;20260;-81
2022/04/28 06:49:14;;;;;;;8.70;7.80;;;;;;;;;;5073626;28;20233;-80
2022/04/28 06:51:40;;;;;;;8.93;7.90;;;;;;;;;;5055171;28;20176;-81
2022/04/28 06:54:06;;;;;;;9.80;8.77;;;;;;;;;;5071100;28;20207;-80
2022/04/28 06:56:32;;;;;;;8.87;7.90;;;;;;;;;;5051937;28;20192;-81
2022/04/28 06:58:58;;;;;;;10.07;9.03;;;;;;;;;;5070638;28;20184;-81
2022/04/28 07:01:24;;;;;;;12.33;8.40;;;;;;;;;;5052848;28;20263;-81
2022/04/28 07:03:51;;;;;;;9.07;8.17;;;;;;;;;;5051693;28;20690;-81
2022/04/28 07:06:17;;;;;;;8.50;7.20;;;;;;;;;;5070906;28;20539;-80
2022/04/28 07:08:45;;;;;;;11.37;8.50;;;;;;;;;;5055723;28;20564;-81
2022/04/28 07:11:11;;;;;;;12.30;8.33;;;;;;;;;;5070876;28;20179;-80
2022/04/28 07:13:38;;;;;;;10.13;9.10;;;;;;;;;;5054290;28;20238;-80
2022/04/28 07:16:07;;;;;;;13.13;8.77;;;;;;;;;;5053555;28;20558;-81
2022/04/28 07:18:33;;;;;;;11.37;9.37;;;;;;;;;;5055775;28;20594;-81
2022/04/28 07:21:02;;;;;;;11.67;8.57;;;;;;;;;;5059103;28;20258;-81
2022/04/28 07:23:28;;;;;;;10.70;8.40;;;;;;;;;;5077480;28;20184;-82
2022/04/28 07:25:54;;;;;;;10.30;8.00;;;;;;;;;;5056843;28;20716;-80
2022/04/28 07:28:20;;;;;;;13.03;9.33;;;;;;;;;;5055306;28;20188;-81
2022/04/28 07:30:47;;;;;;;10.70;8.77;;;;;;;;;;5054847;28;20218;-80
2022/04/28 07:33:13;;;;;;;9.93;8.37;;;;;;;;;;5053356;28;21015;-79
2022/04/28 07:35:39;;;;;;;11.50;8.63;;;;;;;;;;5054457;28;20678;-80
2022/04/28 07:38:05;;;;;;;9.97;8.13;;;;;;;;;;5071771;28;20189;-80
2022/04/28 07:40:32;;;;;;;10.80;8.30;;;;;;;;;;5053743;28;20282;-79
2022/04/28 07:42:58;;;;;;;11.90;9.23;;;;;;;;;;5071856;28;20173;-80
2022/04/28 07:45:24;;;;;;;10.10;8.97;;;;;;;;;;5053952;28;20180;-80
2022/04/28 07:47:50;;;;;;;9.40;7.97;;;;;;;;;;5053914;28;20169;-82
2022/04/28 07:50:17;;;;;;;12.37;8.73;;;;;;;;;;5053392;28;20240;-79
2022/04/28 07:52:44;;;;;;;11.03;9.57;;;;;;;;;;5059603;28;20276;-80
2022/04/28 07:55:10;;;;;;;15.73;9.80;;;;;;;;;;5053397;28;20196;-81
2022/04/28 07:57:36;;;;;;;11.20;9.10;;;;;;;;;;5071957;28;20173;-79
2022/04/28 08:00:04;;;;;;;9.67;8.67;;;;;;;;;;5071828;28;20164;-79
2022/04/28 08:02:31;;;;;;;10.80;8.43;;;;;;;;;;5054953;28;20547;-80
2022/04/28 08:04:58;;;;;;;10.50;8.93;;;;;;;;;;5053802;28;20185;-80
2022/04/28 08:07:24;;;;;;;11.10;8.87;;;;;;;;;;5053077;28;21746;-81
2022/04/28 08:09:50;;;;;;;11.23;8.83;;;;;;;;;;5052903;28;20694;-81
2022/04/28 08:12:16;;;;;;;11.27;9.50;;;;;;;;;;5070599;28;20250;-79
2022/04/28 08:14:42;;;;;;;13.47;9.17;;;;;;;;;;5053059;28;20239;-79
2022/04/28 08:17:12;;;;;;;10.27;9.17;;;;;;;;;;5052960;28;20169;-79
2022/04/28 08:19:38;;;;;;;10.13;8.80;;;;;;;;;;5052278;28;20196;-80
2022/04/28 08:22:04;;;;;;;10.47;9.37;;;;;;;;;;5074020;28;20233;-81
2022/04/28 08:24:30;;;;;;;11.53;9.10;;;;;;;;;;5055649;28;20206;-81
2022/04/28 08:26:56;;;;;;;12.43;9.37;;;;;;;;;;5050429;28;20336;-80
2022/04/28 08:29:23;;;;;;;10.60;9.50;;;;;;;;;;5039306;28;20188;-80
2022/04/28 08:31:49;;;;;;;10.93;8.93;;;;;;;;;;5073867;28;20626;-78
2022/04/28 08:34:17;;;;;;;12.30;8.73;;;;;;;;;;5069662;28;20667;-80
2022/04/28 08:36:44;;;;;;;10.47;9.33;;;;;;;;;;5066603;28;20457;-80
2022/04/28 08:39:10;;;;;;;10.43;8.70;;;;;;;;;;5042000;28;20686;-81
2022/04/28 08:41:37;;;;;;;10.80;7.43;;;;;;;;;;5052026;28;20208;-80
2022/04/28 08:44:04;;;;;;;9.73;8.60;;;;;;;;;;5071510;28;20188;-80
2022/04/28 08:49:16;;;;;;;9.90;8.50;;;;;;;;;;5069579;28;20582;-80
2022/04/28 08:51:43;;;;;;;11.90;8.87;;;;;;;;;;5073142;28;20176;-80
2022/04/28 08:54:10;;;;;;;13.53;9.17;;;;;;;;;;5095762;28;20420;-80
2022/04/28 08:56:36;;;;;;;11.53;9.70;;;;;;;;;;5062772;28;20256;-79
2022/04/28 08:59:03;;;;;;;11.77;9.43;;;;;;;;;;5058504;28;20200;-79
2022/04/28 09:01:29;;;;;;;10.10;9.10;;;;;;;;;;5057198;28;20229;-79
2022/04/28 09:04:03;;;;;;;11.53;8.53;;;;;;;;;;5059922;28;20188;-80
2022/04/28 09:06:30;;;;;;;10.73;8.70;;;;;;;;;;5056895;28;20605;-80
2022/04/28 09:09:00;;;;;;;9.50;8.40;;;;;;;;;;5057011;28;20189;-79
2022/04/28 09:11:27;;;;;;;10.57;8.70;;;;;;;;;;5056464;28;20217;-79
2022/04/28 09:14:10;;;;;;;11.10;8.40;;;;;;;;;;5056249;28;20209;-81
2022/04/28 09:16:38;;;;;;;10.33;8.67;;;;;;;;;;5075047;28;20621;-81
2022/04/28 09:19:04;;;;;;;11.50;8.87;;;;;;;;;;5055543;28;20187;-79
2022/04/28 09:21:34;;;;;;;9.17;8.20;;;;;;;;;;5061269;28;20673;-81
2022/04/28 09:24:01;;;;;;;10.07;7.87;;;;;;;;;;5074863;28;20190;-81
2022/04/28 09:26:27;;;;;;;8.97;8.07;;;;;;;;;;5056379;28;20295;-80
2022/04/28 09:28:54;;;;;;;9.00;8.00;;;;;;;;;;5052775;28;20179;-80
2022/04/28 09:31:20;;;;;;;9.40;8.50;;;;;;;;;;5065640;28;20227;-80
2022/04/28 09:33:48;;;;;;;9.10;8.17;;;;;;;;;;5065478;28;20583;-81
2022/04/28 09:36:14;;;;;;;11.00;8.63;;;;;;;;;;5075048;28;20606;-80
2022/04/28 09:38:40;;;;;;;11.00;9.23;;;;;;;;;;5068575;28;20709;-81
2022/04/28 09:43:58;;;;;;;10.70;9.30;;;;;;;;;;5074902;28;20187;-80
2022/04/28 09:46:25;;;;;;;9.60;8.63;;;;;;;;;;5044695;28;20270;-81
2022/04/28 09:48:52;;;;;;;9.87;7.90;;;;;;;;;;5054633;28;20182;-82
2022/04/28 09:51:22;;;;;;;8.70;7.80;;;;;;;;;;5056855;28;20223;-79
2022/04/28 09:53:51;;;;;;;10.47;8.63;;;;;;;;;;5056474;28;20781;-80
2022/04/28 09:56:20;;;;;;;10.53;8.97;;;;;;;;;;5055232;28;20177;-81
2022/04/28 09:58:46;;;;;;;9.70;8.63;;;;;;;;;;5073988;28;20663;-82
2022/04/28 10:01:12;;;;;;;8.70;7.80;;;;;;;;;;5055610;28;20191;-81
2022/04/28 10:03:40;;;;;;;9.17;7.93;;;;;;;;;;5067094;28;20176;-80
2022/04/28 10:06:07;;;;;;;9.90;8.90;;;;;;;;;;5056834;28;20180;-81
2022/04/28 10:08:34;;;;;;;10.00;8.93;;;;;;;;;;5080696;28;20626;-81
2022/04/28 10:11:00;;;;;;;10.00;8.73;;;;;;;;;;5067985;28;20180;-79
2022/04/28 10:13:28;;;;;;;11.03;9.33;;;;;;;;;;5052229;28;20438;-80
2022/04/28 10:16:07;;;;;;;9.47;8.63;;;;;;;;;;5066414;28;20267;-81
2022/04/28 10:18:51;;;;;;;9.63;8.07;;;;;;;;;;5051927;28;20184;-81
2022/04/28 10:21:20;;;;;;;9.87;8.27;;;;;;;;;;5071937;28;20176;-80
2022/04/28 10:32:23;;;;;;;10.43;9.43;;;;;;;;;;5072795;28;20210;-81
2022/04/28 10:35:09;;;;;;;10.70;9.60;;;;;;;;;;5071664;28;20196;-81
2022/04/28 10:37:36;;;;;;;10.03;9.03;;;;;;;;;;5048135;28;20219;-80
2022/04/28 10:40:03;;;;;;;14.20;10.33;;;;;;;;;;5054475;28;20253;-80
2022/04/28 10:42:30;;;;;;;13.43;9.57;;;;;;;;;;5046036;28;20177;-80
2022/04/28 10:44:57;;;;;;;9.60;8.70;;;;;;;;;;5054953;28;20188;-80
2022/04/28 10:47:43;;;;;;;10.57;9.00;;;;;;;;;;5056522;28;20659;-81
2022/04/28 10:50:23;;;;;;;10.13;9.00;;;;;;;;;;5072131;28;20181;-79
2022/04/28 10:52:55;;;;;;;10.30;9.33;;;;;;;;;;5054875;28;20528;-82
2022/04/28 10:55:25;;;;;;;11.50;9.67;;;;;;;;;;5053637;28;20209;-80
2022/04/28 10:57:51;;;;;;;12.03;10.13;;;;;;;;;;5053100;28;21530;-83
2022/04/28 11:00:33;;;;;;;12.27;9.37;;;;;;;;;;5068070;28;20629;-83
2022/04/28 11:03:00;;;;;;;13.80;10.23;;;;;;;;;;5052700;28;20225;-79
2022/04/28 11:05:30;;;;;;;10.40;9.43;;;;;;;;;;5053978;28;20182;-80
2022/04/28 11:07:58;;;;;;;11.63;9.93;;;;;;;;;;5054117;28;20195;-79
2022/04/28 11:10:24;;;;;;;11.87;9.10;;;;;;;;;;5054236;28;20191;-80
2022/04/28 11:12:50;;;;;;;13.90;10.33;;;;;;;;;;5056664;28;20184;-79
2022/04/28 11:15:17;;;;;;;10.90;9.53;;;;;;;;;;5049756;28;20638;-81
2022/04/28 11:17:44;;;;;;;9.70;8.73;;;;;;;;;;5044298;28;20194;-79
2022/04/28 11:20:21;;;;;;;11.07;9.00;;;;;;;;;;5043037;28;20180;-80
2022/04/28 11:22:55;;;;;;;10.27;9.27;;;;;;;;;;5044375;28;20805;-79
2022/04/28 11:25:22;;;;;;;10.87;9.00;;;;;;;;;;5048249;28;20173;-79
2022/04/28 11:27:52;;;;;;;10.83;9.70;;;;;;;;;;5061277;28;20283;-79
2022/04/28 11:30:22;;;;;;;11.90;9.03;;;;;;;;;;5066645;28;20219;-79
2022/04/28 11:32:51;;;;;;;11.73;8.60;;;;;;;;;;5049119;28;20517;-79
2022/04/28 11:35:18;;;;;;;10.33;8.53;;;;;;;;;;5046344;28;20215;-80
2022/04/28 11:37:44;;;;;;;12.87;8.90;;;;;;;;;;5047776;28;20627;-81
2022/04/28 11:40:13;;;;;;;10.13;7.73;;;;;;;;;;5064290;28;20180;-79
2022/04/28 11:42:41;;;;;;;10.30;9.07;;;;;;;;;;5047933;28;20250;-79
2022/04/28 11:45:07;;;;;;;10.37;8.57;;;;;;;;;;5042995;28;20245;-80
2022/04/28 11:47:38;;;;;;;11.00;8.33;;;;;;;;;;5039651;28;20188;-79
2022/04/28 11:50:04;;;;;;;11.30;8.73;;;;;;;;;;5066022;28;20184;-79
2022/04/28 11:52:35;;;;;;;11.17;9.57;;;;;;;;;;5043929;28;20193;-78
2022/04/28 11:55:03;;;;;;;11.73;8.93;;;;;;;;;;5063689;28;20203;-79
2022/04/28 11:57:29;;;;;;;12.10;10.87;;;;;;;;;;5065882;28;20588;-78
2022/04/28 11:59:56;;;;;;;11.00;9.50;;;;;;;;;;5048881;28;20627;-79
2022/04/28 12:02:32;;;;;;;11.97;10.83;;;;;;;;;;5045403;28;20181;-78
2022/04/28 12:05:00;;;;;;;10.30;8.87;;;;;;;;;;5049624;28;20235;-79
2022/04/28 12:07:51;;;;;;;12.57;9.67;;;;;;;;;;5047254;28;20185;-80
2022/04/28 12:15:57;;;;;;;10.00;8.93;;;;;;;;;;5067363;28;20223;-79
2022/04/28 12:21:15;;;;;;;14.33;11.77;;;;;;;;;;5063340;28;20650;-80
2022/04/28 12:23:42;;;;;;;10.50;9.30;;;;;;;;;;5038103;28;20213;-81
2022/04/28 12:26:09;;;;;;;9.87;8.30;;;;;;;;;;5062983;28;20219;-80
2022/04/28 12:28:39;;;;;;;11.17;10.03;;;;;;;;;;5044809;28;20665;-79
2022/04/28 12:31:06;;;;;;;10.10;9.00;;;;;;;;;;5060376;28;20281;-80
2022/04/28 12:33:34;;;;;;;14.87;8.30;;;;;;;;;;5044619;28;20228;-80
2022/04/28 12:36:01;;;;;;;10.80;9.00;;;;;;;;;;5046918;28;20180;-79
2022/04/28 12:38:28;;;;;;;12.63;9.80;;;;;;;;;;5043782;28;20180;-80
2022/04/28 12:40:55;;;;;;;11.67;9.23;;;;;;;;;;5042141;28;20555;-80
2022/04/28 12:43:37;;;;;;;9.83;8.80;;;;;;;;;;5047465;28;20716;-79
2022/04/28 12:46:06;;;;;;;9.50;8.53;;;;;;;;;;5064056;28;20180;-80
2022/04/28 12:48:32;;;;;;;10.17;8.80;;;;;;;;;;5044345;28;20995;-79
2022/04/28 12:51:08;;;;;;;10.90;8.20;;;;;;;;;;5046921;28;20172;-79
2022/04/28 12:53:35;;;;;;;10.87;8.93;;;;;;;;;;5043429;28;20212;-80
2022/04/28 12:56:02;;;;;;;9.53;8.53;;;;;;;;;;5061900;28;20636;-83
2022/04/28 12:58:28;;;;;;;9.30;8.30;;;;;;;;;;5042957;28;20179;-79
2022/04/28 13:00:54;;;;;;;9.67;8.70;;;;;;;;;;5046075;28;20826;-81
2022/04/28 13:03:29;;;;;;;10.00;8.30;;;;;;;;;;5045924;28;20238;-79
2022/04/28 13:05:56;;;;;;;11.90;9.07;;;;;;;;;;5048249;28;20169;-78
2022/04/28 13:08:22;;;;;;;9.57;8.07;;;;;;;;;;5046526;28;20683;-78
2022/04/28 13:10:48;;;;;;;10.30;8.23;;;;;;;;;;5048941;28;20183;-81
2022/04/28 13:13:14;;;;;;;9.47;8.50;;;;;;;;;;5066013;28;20185;-81
2022/04/28 13:15:40;;;;;;;9.90;8.97;;;;;;;;;;5048049;28;20201;-78
2022/04/28 13:18:06;;;;;;;9.17;7.50;;;;;;;;;;5044674;28;20204;-79
2022/04/28 13:20:33;;;;;;;10.60;8.33;;;;;;;;;;5045488;28;20640;-81
2022/04/28 13:22:59;;;;;;;10.07;9.07;;;;;;;;;;5063965;28;20622;-77
2022/04/28 13:25:25;;;;;;;10.47;8.00;;;;;;;;;;5045560;28;20184;-80
2022/04/28 13:27:51;;;;;;;8.23;7.43;;;;;;;;;;5042708;28;20189;-78
2022/04/28 13:30:17;;;;;;;12.03;8.80;;;;;;;;;;5044345;28;20406;-79
2022/04/28 13:32:43;;;;;;;9.43;7.90;;;;;;;;;;5060807;28;20271;-80
2022/04/28 13:35:09;;;;;;;8.53;7.60;;;;;;;;;;5045764;28;20197;-78
2022/04/28 13:37:35;;;;;;;9.80;7.50;;;;;;;;;;5048823;28;20181;-84
2022/04/28 13:40:01;;;;;;;8.50;7.03;;;;;;;;;;5053588;28;20219;-84
2022/04/28 13:42:27;;;;;;;8.23;7.33;;;;;;;;;;5051825;28;20176;-83
2022/04/28 13:44:53;;;;;;;10.80;8.30;;;;;;;;;;5052595;28;20173;-85
2022/04/28 13:47:19;;;;;;;11.07;8.83;;;;;;;;;;5070757;28;20184;-82
2022/04/28 13:49:45;;;;;;;12.17;8.70;;;;;;;;;;5052314;28;20230;-83
2022/04/28 13:52:11;;;;;;;11.00;8.07;;;;;;;;;;5047626;28;20185;-81
2022/04/28 13:54:37;;;;;;;10.83;8.53;;;;;;;;;;5050350;28;20505;-80
2022/04/28 13:57:03;;;;;;;14.67;9.50;;;;;;;;;;5054238;28;20406;-81
2022/04/28 13:59:30;;;;;;;11.17;9.57;;;;;;;;;;5051184;28;20184;-82
2022/04/28 14:01:56;;;;;;;10.90;7.90;;;;;;;;;;5052669;28;20185;-83
2022/04/28 14:04:25;;;;;;;11.23;10.17;;;;;;;;;;5051628;28;20704;-85
2022/04/28 14:06:54;;;;;;;14.70;8.10;;;;;;;;;;5050870;28;20184;-81
2022/04/28 14:09:21;;;;;;;14.83;9.10;;;;;;;;;;5050943;28;20295;-82
2022/04/28 14:11:47;;;;;;;9.33;7.63;;;;;;;;;;5050696;28;20267;-80
2022/04/28 14:14:13;;;;;;;9.17;7.83;;;;;;;;;;5076156;28;20258;-81
2022/04/28 14:16:40;;;;;;;9.27;8.30;;;;;;;;;;5058363;28;20209;-84
2022/04/28 14:19:06;;;;;;;8.97;7.03;;;;;;;;;;5054500;28;20262;-83
2022/04/28 14:21:33;;;;;;;9.67;7.30;;;;;;;;;;5068473;28;20753;-84
2022/04/28 14:23:59;;;;;;;10.17;7.93;;;;;;;;;;5047363;28;20281;-84
2022/04/28 14:26:25;;;;;;;11.37;8.67;;;;;;;;;;5052571;28;20213;-87
2022/04/28 14:28:51;;;;;;;9.10;7.70;;;;;;;;;;5053426;28;20183;-83
2022/04/28 14:31:18;;;;;;;11.53;7.63;;;;;;;;;;5054800;28;20581;-83
2022/04/28 14:33:44;;;;;;;9.20;7.63;;;;;;;;;;5055601;28;20245;-83
2022/04/28 14:36:10;;;;;;;9.40;8.23;;;;;;;;;;5053067;28;20173;-82
2022/04/28 14:38:39;;;;;;;10.27;7.83;;;;;;;;;;5053114;28;20200;-83
2022/04/28 14:41:05;;;;;;;10.53;7.80;;;;;;;;;;5053063;28;20175;-82
2022/04/28 14:43:32;;;;;;;8.83;7.37;;;;;;;;;;5053432;28;20193;-82
2022/04/28 14:45:58;;;;;;;9.17;8.20;;;;;;;;;;5056258;28;20230;-82
2022/04/28 14:48:24;;;;;;;9.23;7.83;;;;;;;;;;5054940;28;20180;-83
2022/04/28 14:53:34;;;;;;;9.37;7.30;;;;;;;;;;5075019;28;20262;-82
2022/04/28 14:56:01;;;;;;;8.17;7.37;;;;;;;;;;5057104;28;20176;-83
2022/04/28 14:58:27;;;;;;;9.93;7.80;;;;;;;;;;5079147;28;20188;-86
2022/04/28 15:00:53;;;;;;;9.20;7.97;;;;;;;;;;5077578;28;20181;-84
2022/04/28 15:03:20;;;;;;;10.97;7.47;;;;;;;;;;5061095;28;20214;-84
2022/04/28 15:05:46;;;;;;;9.00;7.93;;;;;;;;;;5079326;28;20180;-80
2022/04/28 15:08:12;;;;;;;9.97;8.33;;;;;;;;;;5076462;28;20234;-83
2022/04/28 15:10:41;;;;;;;8.17;7.10;;;;;;;;;;5078420;28;20173;-82
2022/04/28 15:13:08;;;;;;;10.00;8.30;;;;;;;;;;5055492;28;20188;-83
2022/04/28 15:15:38;;;;;;;12.97;8.43;;;;;;;;;;5056146;28;20201;-84
2022/04/28 15:18:04;;;;;;;12.17;7.87;;;;;;;;;;5058523;28;20186;-82
2022/04/28 15:20:30;;;;;;;9.07;7.73;;;;;;;;;;5058656;28;20376;-83
2022/04/28 15:23:02;;;;;;;52.27;14.63;;;;;;;;;;5069542;28;20176;-88